»·PEaware :: PSV145 KMCI-KSTL

PSV145 :: KMCI-KSTL

FLIGHT INFORMATION

Flight Status: Arrived
Operator:
Power Set Virtual (website)
More flights by this operator :: More flights under this callsign
Pilot: Adam K. (2650)
Aircraft: BOEING 737-800
(B738)
More flights by this aircraft type
Origin: KMCI Kansas City Intl
United States
Destination: KSTL Lambert-St Louis Intl
United States
More flights between these airports :: More routes between these airports
Route: LAKES3 COU KAYLA KAYLA3
File this flight plan on PilotEdge
Remarks:
Altitude:
(Current/Filed)
27,000ft
Speed:
(Current/Filed)
432kts
Departed: 26-Apr-20 06:39 AM
Arrived: 26-Apr-20 07:24 AM
Distance/Time
Traveled:
205nm/0:45
Distance/Time
To Go:
Arrived

Flight Plot

Page will automatically refresh every two minutes.


Map Options




Map Legend


Flown Route
Filed Route
Departure Airport
Arrival Airport
Navaid (VOR, NDB)
Fix

Horizontal Profiles

Position Reports

Time Latitude Longitude Heading Altitude Ground
Speed
26-Apr-20 06:14 39.293222 -94.720317 29 1012ft 0kts
26-Apr-20 06:16 39.293222 -94.720317 29 1012ft 0kts
26-Apr-20 06:17 39.293222 -94.720317 29 1012ft 0kts
26-Apr-20 06:18 39.293222 -94.720317 29 1012ft 0kts
26-Apr-20 06:19 39.293222 -94.720317 29 1012ft 0kts
26-Apr-20 06:20 39.293222 -94.720317 29 1012ft 0kts
26-Apr-20 06:21 39.293222 -94.720317 29 1011ft 0kts
26-Apr-20 06:22 39.293222 -94.720317 29 1011ft 0kts
26-Apr-20 06:23 39.293222 -94.720317 29 1011ft 0kts
26-Apr-20 06:24 39.293222 -94.720317 29 1011ft 0kts
26-Apr-20 06:25 39.293222 -94.720317 29 1011ft 0kts
26-Apr-20 06:26 39.293222 -94.720317 29 1011ft 0kts
26-Apr-20 06:27 39.293222 -94.720317 29 1011ft 0kts
26-Apr-20 06:28 39.293222 -94.720317 29 1011ft 0kts
26-Apr-20 06:29 39.293222 -94.720317 29 1011ft 0kts
26-Apr-20 06:30 39.293222 -94.720317 29 1011ft 0kts
26-Apr-20 06:31 39.293222 -94.720317 29 1011ft 0kts
26-Apr-20 06:32 39.293222 -94.720317 29 1011ft 0kts
26-Apr-20 06:33 39.293074 -94.720425 29 1012ft 2kts
26-Apr-20 06:34 39.292990 -94.720485 28 1012ft 0kts
26-Apr-20 06:35 39.292990 -94.720485 28 1012ft 0kts
26-Apr-20 06:35 39.293139 -94.720445 356 1012ft 3kts
26-Apr-20 06:37 39.292874 -94.723065 242 1013ft 14kts
26-Apr-20 06:38 39.293749 -94.729122 351 1015ft 9kts
26-Apr-20 06:38 39.296350 -94.728399 13 1011ft 69kts
26-Apr-20 06:40 39.339849 -94.703394 74 2999ft 175kts
26-Apr-20 06:40 39.335717 -94.644326 116 4142ft 242kts
26-Apr-20 06:41 39.294698 -94.562178 118 6465ft 287kts
26-Apr-20 06:42 39.252851 -94.471105 118 9380ft 303kts
26-Apr-20 06:43 39.206288 -94.369744 118 11111ft 362kts
26-Apr-20 06:44 39.153177 -94.254261 118 13668ft 385kts
26-Apr-20 06:45 39.097515 -94.133338 117 16303ft 404kts
26-Apr-20 06:46 39.083170 -93.993246 84 18619ft 408kts
26-Apr-20 06:47 39.076697 -93.843478 86 20795ft 429kts
26-Apr-20 06:48 39.067118 -93.686858 86 22886ft 444kts
26-Apr-20 06:49 39.056652 -93.525414 85 24728ft 459kts
26-Apr-20 06:50 39.045524 -93.359333 85 26427ft 472kts
26-Apr-20 06:51 39.033873 -93.188154 86 27221ft 487kts
26-Apr-20 06:52 39.021611 -93.013910 87 27221ft 486kts
26-Apr-20 06:53 38.996248 -92.840413 99 27248ft 500kts
26-Apr-20 06:54 38.950526 -92.670744 105 27246ft 497kts
26-Apr-20 06:55 38.900637 -92.504962 106 27246ft 497kts
26-Apr-20 06:56 38.849356 -92.339492 107 27225ft 497kts
26-Apr-20 06:57 38.808490 -92.175429 96 27224ft 456kts
26-Apr-20 06:58 38.788584 -92.013966 93 27227ft 459kts
26-Apr-20 06:59 38.770245 -91.853054 93 26121ft 451kts
26-Apr-20 07:00 38.752550 -91.698165 94 24253ft 425kts
26-Apr-20 07:01 38.735718 -91.551408 94 22356ft 408kts
26-Apr-20 07:02 38.718955 -91.408194 95 20345ft 400kts
26-Apr-20 07:03 38.702532 -91.269903 96 18331ft 383kts
26-Apr-20 07:04 38.695934 -91.136903 84 16252ft 365kts
26-Apr-20 07:05 38.699234 -91.007976 83 14156ft 355kts
26-Apr-20 07:06 38.702198 -90.883850 83 12230ft 343kts
26-Apr-20 07:07 38.704971 -90.763916 83 10593ft 323kts
26-Apr-20 07:08 38.708675 -90.655384 79 9819ft 290kts
26-Apr-20 07:09 38.712675 -90.554054 86 8391ft 276kts
26-Apr-20 07:10 38.684794 -90.464863 117 7246ft 265kts
26-Apr-20 07:11 38.646593 -90.387856 117 6273ft 251kts
26-Apr-20 07:12 38.609148 -90.312065 118 5304ft 252kts
26-Apr-20 07:13 38.572474 -90.238022 118 5012ft 241kts
26-Apr-20 07:14 38.535549 -90.165608 118 4925ft 239kts
26-Apr-20 07:15 38.527383 -90.094051 39 4523ft 207kts
26-Apr-20 07:16 38.574537 -90.067368 337 4516ft 192kts
26-Apr-20 07:17 38.618356 -90.106775 309 4513ft 197kts
26-Apr-20 07:18 38.648634 -90.166812 306 3923ft 194kts
26-Apr-20 07:19 38.674329 -90.218661 307 2962ft 154kts
26-Apr-20 07:20 38.696035 -90.262281 306 2140ft 145kts
26-Apr-20 07:21 38.713994 -90.298461 304 1492ft 133kts
26-Apr-20 07:22 38.735247 -90.341399 303 727ft 135kts
26-Apr-20 07:23 38.747541 -90.366869 250 547ft 18kts
26-Apr-20 07:24 38.747036 -90.367368 196 548ft 2kts
26-Apr-20 07:25 38.745489 -90.368195 215 553ft 0kts
26-Apr-20 07:26 38.745478 -90.368205 215 553ft 0kts
26-Apr-20 07:27 38.745478 -90.368205 215 553ft 0kts
26-Apr-20 07:28 38.745478 -90.368205 215 553ft 0kts

Navigation Log

Ident Type
Flight plan parsing failed, navigation log unavailable